createdAt,value
2023-03-24T00:00:17.425Z,81.0
2023-03-24T00:01:16.998Z,81.1
2023-03-24T00:02:16.854Z,81.1
2023-03-24T00:03:18.246Z,81.1
2023-03-24T00:04:16.998Z,81.1
2023-03-24T00:05:16.547Z,81.1
2023-03-24T00:06:17.080Z,81.1
2023-03-24T00:07:16.599Z,81.2
2023-03-24T00:08:17.122Z,81.2
2023-03-24T00:09:16.651Z,81.2
2023-03-24T00:10:17.212Z,81.2
2023-03-24T00:11:16.763Z,81.1
2023-03-24T00:12:16.626Z,81.1
2023-03-24T00:13:17.181Z,81.1
2023-03-24T00:14:16.734Z,81.1
2023-03-24T00:15:17.298Z,81.1
2023-03-24T00:16:16.993Z,81.1
2023-03-24T00:17:16.682Z,81.1
2023-03-24T00:18:17.237Z,81.1
2023-03-24T00:19:16.787Z,81.1
2023-03-24T00:20:17.338Z,81.3
2023-03-24T00:21:16.876Z,81.1
2023-03-24T00:22:16.886Z,81.1
2023-03-24T00:23:17.479Z,81.1
2023-03-24T00:24:17.039Z,81.1
2023-03-24T00:25:16.583Z,81.1
2023-03-24T00:26:17.160Z,81.0
2023-03-24T00:27:16.705Z,81.1
2023-03-24T00:28:17.282Z,81.1
2023-03-24T00:29:16.814Z,81.1
2023-03-24T00:30:17.397Z,81.1
2023-03-24T00:31:17.132Z,81.2
2023-03-24T00:32:17.004Z,81.4
2023-03-24T00:33:16.536Z,81.3
2023-03-24T00:34:17.056Z,81.2
2023-03-24T00:35:16.660Z,81.2
2023-03-24T00:36:17.308Z,81.3
2023-03-24T00:37:16.855Z,81.3
2023-03-24T00:38:17.386Z,81.2
2023-03-24T00:39:16.927Z,81.4
2023-03-24T00:40:17.478Z,81.6
2023-03-24T00:41:17.077Z,81.4
2023-03-24T00:42:16.870Z,81.5
2023-03-24T00:43:17.433Z,81.6
2023-03-24T00:44:16.975Z,81.8
2023-03-24T00:45:16.568Z,81.9
2023-03-24T00:46:17.157Z,82.5
2023-03-24T00:47:16.701Z,82.7
2023-03-24T00:48:17.239Z,83.0
2023-03-24T00:49:16.759Z,83.2
2023-03-24T00:50:17.304Z,83.7
2023-03-24T00:51:16.869Z,83.3
2023-03-24T00:52:16.595Z,83.1
2023-03-24T00:53:17.151Z,83.1
2023-03-24T00:54:16.693Z,82.9
2023-03-24T00:55:17.310Z,83.2
2023-03-24T00:56:16.846Z,83.1
2023-03-24T00:57:17.410Z,83.0
2023-03-24T00:58:16.953Z,84.0
2023-03-24T00:59:17.489Z,84.1
2023-03-24T01:00:17.074Z,83.6
2023-03-24T01:01:16.688Z,83.7
2023-03-24T01:02:17.453Z,83.5
2023-03-24T01:03:17.097Z,83.9
2023-03-24T01:04:16.711Z,84.2
2023-03-24T01:05:17.238Z,84.6
2023-03-24T01:06:16.789Z,84.3
2023-03-24T01:07:17.308Z,85.5
2023-03-24T01:08:16.859Z,85.1
2023-03-24T01:09:17.411Z,84.6
2023-03-24T01:10:16.965Z,84.2
2023-03-24T01:11:16.496Z,84.2
2023-03-24T01:12:17.397Z,84.1
2023-03-24T01:13:16.937Z,84.3
2023-03-24T01:14:17.510Z,84.2
2023-03-24T01:15:17.104Z,84.3
2023-03-24T01:16:16.729Z,84.3
2023-03-24T01:17:17.329Z,84.4
2023-03-24T01:18:16.848Z,84.5
2023-03-24T01:19:18.008Z,84.6
2023-03-24T01:20:16.547Z,84.7
2023-03-24T01:21:17.093Z,84.8
2023-03-24T01:22:16.919Z,85.0
2023-03-24T01:23:17.447Z,85.1
2023-03-24T01:24:16.998Z,85.2
2023-03-24T01:25:16.543Z,85.3
2023-03-24T01:26:17.106Z,85.6
2023-03-24T01:27:16.675Z,85.9
2023-03-24T01:28:17.217Z,85.8
2023-03-24T01:29:16.741Z,85.7
2023-03-24T01:30:17.274Z,86.0
2023-03-24T01:31:16.875Z,85.7
2023-03-24T01:32:17.200Z,85.8
2023-03-24T01:33:16.755Z,85.9
2023-03-24T01:34:17.308Z,85.7
2023-03-24T01:35:16.866Z,85.7
2023-03-24T01:36:17.545Z,85.6
2023-03-24T01:37:17.082Z,85.8
2023-03-24T01:38:16.625Z,85.9
2023-03-24T01:39:17.161Z,85.7
2023-03-24T01:40:16.694Z,85.9
2023-03-24T01:41:17.234Z,85.7
2023-03-24T01:42:16.846Z,85.5
2023-03-24T01:43:17.372Z,85.1
2023-03-24T01:44:16.892Z,85.0
2023-03-24T01:45:17.428Z,85.2
2023-03-24T01:46:17.113Z,84.8
2023-03-24T01:47:16.644Z,84.8
2023-03-24T01:48:17.208Z,84.9
2023-03-24T01:49:16.739Z,84.8
2023-03-24T01:50:17.281Z,84.8
2023-03-24T01:51:16.831Z,84.8
2023-03-24T01:52:17.107Z,84.9
2023-03-24T01:53:16.654Z,84.9
2023-03-24T01:54:17.206Z,84.9
2023-03-24T01:55:16.791Z,84.8
2023-03-24T01:56:17.410Z,84.6
2023-03-24T01:57:16.940Z,84.8
2023-03-24T01:58:17.477Z,85.3
2023-03-24T01:59:17.030Z,85.2
2023-03-24T02:00:16.576Z,85.3
2023-03-24T02:01:17.236Z,85.3
2023-03-24T02:02:17.152Z,85.5
2023-03-24T02:03:16.681Z,85.5
2023-03-24T02:04:17.312Z,85.5
2023-03-24T02:05:16.873Z,85.6
2023-03-24T02:06:17.459Z,85.8
2023-03-24T02:07:17.013Z,86.0
2023-03-24T02:08:16.578Z,85.9
2023-03-24T02:09:17.119Z,85.9
2023-03-24T02:10:16.698Z,85.9
2023-03-24T02:11:17.264Z,86.1
2023-03-24T02:12:17.236Z,86.2
2023-03-24T02:13:16.762Z,86.1
2023-03-24T02:14:17.324Z,86.0
2023-03-24T02:15:16.868Z,85.9
2023-03-24T02:16:17.881Z,86.0
2023-03-24T02:17:17.457Z,86.0
2023-03-24T02:18:17.034Z,86.3
2023-03-24T02:19:16.574Z,86.4
2023-03-24T02:20:17.150Z,86.3
2023-03-24T02:21:16.689Z,86.1
2023-03-24T02:22:17.033Z,86.2
2023-03-24T02:23:16.653Z,86.1
2023-03-24T02:24:17.265Z,86.2
2023-03-24T02:25:16.791Z,86.1
2023-03-24T02:26:17.392Z,86.1
2023-03-24T02:27:16.928Z,85.8
2023-03-24T02:28:17.456Z,85.8
2023-03-24T02:29:17.016Z,85.9
2023-03-24T02:30:16.580Z,85.8
2023-03-24T02:31:17.222Z,85.7
2023-03-24T02:32:16.835Z,85.6
2023-03-24T02:33:17.405Z,85.5
2023-03-24T02:34:17.005Z,85.7
2023-03-24T02:35:16.544Z,85.4
2023-03-24T02:36:17.113Z,85.4
2023-03-24T02:37:16.702Z,85.6
2023-03-24T02:38:17.228Z,85.4
2023-03-24T02:39:16.779Z,85.4
2023-03-24T02:40:17.344Z,85.4
2023-03-24T02:41:16.890Z,85.0
2023-03-24T02:42:16.578Z,85.0
2023-03-24T02:43:17.157Z,85.2
2023-03-24T02:44:16.709Z,85.2
2023-03-24T02:45:17.538Z,85.3
2023-03-24T02:46:17.189Z,85.5
2023-03-24T02:47:16.747Z,85.3
2023-03-24T02:48:17.282Z,85.2
2023-03-24T02:49:16.853Z,85.2
2023-03-24T02:50:17.445Z,85.1
2023-03-24T02:51:16.987Z,85.2
2023-03-24T02:52:17.113Z,85.3
2023-03-24T02:53:16.660Z,85.2
2023-03-24T02:54:17.204Z,85.1
2023-03-24T02:55:16.783Z,85.1
2023-03-24T02:56:17.322Z,85.0
2023-03-24T02:57:16.837Z,85.2
2023-03-24T02:58:17.365Z,84.8
2023-03-24T02:59:16.921Z,84.8
2023-03-24T03:00:17.497Z,84.9
2023-03-24T03:01:17.132Z,84.8
2023-03-24T03:02:17.160Z,84.9
2023-03-24T03:03:16.738Z,85.1
2023-03-24T03:04:17.506Z,85.0
2023-03-24T03:05:17.158Z,85.1
2023-03-24T03:06:16.693Z,85.0
2023-03-24T03:07:17.319Z,84.9
2023-03-24T03:08:16.876Z,85.0
2023-03-24T03:09:17.420Z,84.9
2023-03-24T03:10:16.951Z,84.9
2023-03-24T03:11:17.494Z,85.0
2023-03-24T03:12:17.151Z,84.9
2023-03-24T03:13:16.695Z,84.9
2023-03-24T03:14:17.268Z,84.6
2023-03-24T03:15:16.813Z,84.5
2023-03-24T03:16:17.449Z,84.5
2023-03-24T03:17:16.998Z,84.4
2023-03-24T03:18:16.620Z,84.5
2023-03-24T03:19:17.155Z,84.6
2023-03-24T03:20:16.684Z,84.6
2023-03-24T03:21:17.213Z,84.5
2023-03-24T03:22:17.144Z,84.4
2023-03-24T03:23:16.693Z,84.5
2023-03-24T03:24:17.251Z,84.3
2023-03-24T03:25:16.820Z,84.2
2023-03-24T03:26:17.381Z,84.3
2023-03-24T03:27:16.941Z,84.4
2023-03-24T03:28:17.476Z,84.3
2023-03-24T03:29:17.018Z,84.5
2023-03-24T03:30:17.181Z,84.2
2023-03-24T03:31:16.946Z,84.2
2023-03-24T03:32:17.265Z,84.1
2023-03-24T03:33:16.897Z,84.2
2023-03-24T03:34:16.797Z,84.3
2023-03-24T03:35:17.340Z,84.2
2023-03-24T03:36:16.958Z,84.3
2023-03-24T03:37:16.537Z,84.5
2023-03-24T03:38:17.081Z,84.5
2023-03-24T03:39:16.613Z,84.5
2023-03-24T03:40:17.157Z,84.5
2023-03-24T03:41:16.724Z,84.6
2023-03-24T03:42:16.708Z,84.7
2023-03-24T03:43:17.258Z,84.5
2023-03-24T03:44:16.817Z,84.4
2023-03-24T03:45:17.359Z,84.3
2023-03-24T03:46:17.214Z,84.3
2023-03-24T03:47:16.793Z,84.6
2023-03-24T03:48:17.336Z,84.6
2023-03-24T03:49:16.865Z,84.7
2023-03-24T03:50:17.422Z,84.7
2023-03-24T03:51:17.052Z,84.6
2023-03-24T03:52:17.140Z,84.7
2023-03-24T03:53:16.692Z,84.8
2023-03-24T03:54:17.238Z,84.7
2023-03-24T03:55:16.778Z,84.8
2023-03-24T03:56:17.306Z,84.8
2023-03-24T03:57:16.859Z,84.9
2023-03-24T03:58:17.446Z,84.8
2023-03-24T03:59:17.005Z,84.8
2023-03-24T04:00:16.580Z,84.8
2023-03-24T04:01:17.148Z,84.7
2023-03-24T04:02:17.382Z,85.0
2023-03-24T04:03:17.179Z,85.0
2023-03-24T04:04:16.740Z,85.1
2023-03-24T04:05:17.275Z,85.0
2023-03-24T04:06:16.787Z,85.0
2023-03-24T04:07:17.332Z,85.0
2023-03-24T04:08:16.865Z,84.8
2023-03-24T04:09:17.398Z,84.7
2023-03-24T04:10:16.942Z,84.7
2023-03-24T04:11:17.520Z,84.8
2023-03-24T04:12:17.342Z,84.8
2023-03-24T04:13:16.907Z,84.8
2023-03-24T04:14:17.469Z,84.8
2023-03-24T04:15:16.995Z,84.7
2023-03-24T04:16:16.569Z,84.5
2023-03-24T04:17:17.161Z,84.3
2023-03-24T04:18:16.700Z,84.3
2023-03-24T04:19:17.237Z,84.2
2023-03-24T04:20:16.769Z,84.4
2023-03-24T04:21:17.389Z,84.3
2023-03-24T04:22:17.146Z,84.4
2023-03-24T04:23:16.698Z,84.2
2023-03-24T04:24:17.257Z,84.1
2023-03-24T04:25:16.811Z,84.2
2023-03-24T04:26:17.346Z,84.2
2023-03-24T04:27:16.909Z,84.4
2023-03-24T04:28:17.466Z,84.2
2023-03-24T04:29:17.011Z,84.2
2023-03-24T04:30:17.144Z,84.2
2023-03-24T04:31:16.725Z,84.2
2023-03-24T04:32:16.965Z,84.4
2023-03-24T04:33:17.551Z,84.4
2023-03-24T04:34:17.086Z,84.4
2023-03-24T04:35:16.628Z,84.3
2023-03-24T04:36:17.348Z,84.5
2023-03-24T04:37:16.947Z,84.4
2023-03-24T04:38:17.573Z,84.5
2023-03-24T04:39:17.216Z,84.4
2023-03-24T04:40:16.771Z,84.3
2023-03-24T04:41:17.337Z,84.4
2023-03-24T04:42:17.184Z,84.5
2023-03-24T04:43:16.732Z,84.5
2023-03-24T04:44:17.296Z,84.5
2023-03-24T04:45:16.849Z,84.5
2023-03-24T04:46:17.514Z,84.5
2023-03-24T04:47:17.067Z,84.6
2023-03-24T04:48:16.601Z,84.9
2023-03-24T04:49:17.167Z,84.6
2023-03-24T04:50:16.738Z,84.6
2023-03-24T04:51:17.314Z,84.6
2023-03-24T04:52:18.324Z,84.7
2023-03-24T04:53:16.886Z,84.7
2023-03-24T04:54:17.500Z,84.7
2023-03-24T04:55:17.091Z,84.6
2023-03-24T04:56:16.679Z,84.6
2023-03-24T04:57:17.235Z,84.6
2023-03-24T04:58:16.793Z,84.6
2023-03-24T04:59:17.340Z,84.6
2023-03-24T05:00:16.900Z,84.5
2023-03-24T05:01:17.747Z,84.5
2023-03-24T05:02:17.448Z,84.6
2023-03-24T05:03:17.002Z,84.6
2023-03-24T05:04:16.705Z,84.5
2023-03-24T05:05:17.279Z,84.3
2023-03-24T05:06:16.849Z,84.5
2023-03-24T05:07:17.508Z,84.3
2023-03-24T05:08:17.104Z,84.2
2023-03-24T05:09:16.626Z,84.3
2023-03-24T05:10:17.235Z,84.5
2023-03-24T05:11:16.778Z,84.6
2023-03-24T05:12:17.484Z,84.6
2023-03-24T05:13:17.023Z,84.7
2023-03-24T05:14:16.587Z,84.9
2023-03-24T05:15:17.149Z,84.6
2023-03-24T05:16:16.780Z,84.4
2023-03-24T05:17:17.365Z,84.5
2023-03-24T05:18:16.929Z,84.6
2023-03-24T05:19:17.548Z,84.7
2023-03-24T05:20:17.113Z,84.6
2023-03-24T05:21:16.658Z,84.5
2023-03-24T05:22:16.636Z,84.4
2023-03-24T05:23:17.210Z,84.5
2023-03-24T05:24:16.801Z,84.3
2023-03-24T05:25:17.336Z,84.2
2023-03-24T05:26:16.879Z,84.2
2023-03-24T05:27:17.431Z,84.0
2023-03-24T05:28:16.980Z,84.0
2023-03-24T05:29:16.515Z,83.8
2023-03-24T05:30:17.088Z,83.6
2023-03-24T05:31:16.757Z,83.5
2023-03-24T05:32:16.676Z,83.6
2023-03-24T05:33:17.211Z,83.3
2023-03-24T05:34:16.764Z,83.2
2023-03-24T05:35:17.347Z,83.1
2023-03-24T05:36:17.021Z,83.0
2023-03-24T05:37:16.608Z,83.1
2023-03-24T05:38:17.170Z,82.8
2023-03-24T05:39:16.762Z,82.7
2023-03-24T05:40:17.302Z,82.5
2023-03-24T05:41:16.913Z,82.4
2023-03-24T05:42:16.552Z,82.4
2023-03-24T05:43:17.119Z,82.3
2023-03-24T05:44:16.722Z,82.4
2023-03-24T05:45:17.281Z,82.4
2023-03-24T05:46:16.981Z,82.0
2023-03-24T05:47:16.564Z,82.1
2023-03-24T05:48:17.116Z,81.8
2023-03-24T05:49:16.700Z,81.8
2023-03-24T05:50:17.228Z,81.9
2023-03-24T05:51:16.864Z,81.7
2023-03-24T05:52:16.682Z,81.7
2023-03-24T05:53:17.244Z,82.0
2023-03-24T05:54:16.784Z,81.9
2023-03-24T05:55:17.334Z,81.8
2023-03-24T05:56:16.912Z,81.8
2023-03-24T05:57:17.476Z,81.9
2023-03-24T05:58:17.030Z,81.8
2023-03-24T05:59:16.593Z,82.0
2023-03-24T06:00:17.217Z,81.7
2023-03-24T06:01:16.783Z,81.6
2023-03-24T06:02:17.514Z,81.6
2023-03-24T06:03:17.481Z,81.7
2023-03-24T06:04:17.312Z,81.7
2023-03-24T06:05:16.946Z,81.9
2023-03-24T06:06:17.527Z,81.5
2023-03-24T06:07:17.087Z,81.7
2023-03-24T06:08:16.612Z,81.5
2023-03-24T06:09:17.151Z,81.8
2023-03-24T06:10:16.688Z,81.5
2023-03-24T06:11:17.321Z,81.1
2023-03-24T06:12:17.152Z,81.1
2023-03-24T06:13:16.716Z,81.2
2023-03-24T06:14:17.257Z,81.4
2023-03-24T06:15:16.832Z,81.4
2023-03-24T06:16:17.528Z,81.4
2023-03-24T06:17:17.089Z,81.0
2023-03-24T06:18:16.718Z,80.8
2023-03-24T06:19:17.290Z,80.6
2023-03-24T06:20:16.845Z,80.1
2023-03-24T06:21:17.419Z,80.0
2023-03-24T06:22:17.479Z,80.1
2023-03-24T06:23:17.015Z,80.2
2023-03-24T06:24:16.564Z,80.2
2023-03-24T06:25:17.152Z,79.9
2023-03-24T06:26:16.748Z,79.7
2023-03-24T06:27:17.297Z,79.8
2023-03-24T06:28:16.900Z,80.2
2023-03-24T06:29:17.533Z,80.1
2023-03-24T06:30:17.102Z,79.9
2023-03-24T06:31:16.699Z,80.1
2023-03-24T06:32:16.743Z,80.1
2023-03-24T06:33:17.276Z,80.3
2023-03-24T06:34:16.831Z,80.1
2023-03-24T06:35:17.538Z,80.1
2023-03-24T06:36:17.110Z,79.6
2023-03-24T06:37:16.691Z,79.6
2023-03-24T06:38:17.234Z,79.7
2023-03-24T06:39:16.797Z,79.9
2023-03-24T06:40:17.401Z,79.8
2023-03-24T06:41:16.986Z,79.8
2023-03-24T06:42:17.037Z,80.0
2023-03-24T06:43:16.592Z,80.2
2023-03-24T06:44:17.168Z,80.3
2023-03-24T06:45:16.780Z,80.1
2023-03-24T06:46:17.368Z,79.9
2023-03-24T06:47:16.931Z,79.9
2023-03-24T06:48:17.484Z,79.6
2023-03-24T06:49:17.037Z,79.6
2023-03-24T06:50:16.596Z,79.4
2023-03-24T06:51:17.165Z,79.4
2023-03-24T06:52:17.194Z,79.9
2023-03-24T06:53:16.770Z,79.9
2023-03-24T06:54:17.336Z,79.8
2023-03-24T06:55:16.884Z,79.8
2023-03-24T06:56:17.582Z,80.2
2023-03-24T06:57:17.148Z,80.4
2023-03-24T06:58:16.701Z,80.7
2023-03-24T06:59:17.272Z,81.3
2023-03-24T07:00:16.800Z,81.4
2023-03-24T07:01:17.435Z,81.6
2023-03-24T07:02:17.107Z,82.0
2023-03-24T07:03:16.840Z,82.0
2023-03-24T07:04:17.451Z,82.1
2023-03-24T07:05:17.050Z,82.1
2023-03-24T07:06:16.622Z,82.5
2023-03-24T07:08:06.500Z,82.3
2023-03-24T07:08:36.949Z,82.4
2023-03-24T07:09:16.545Z,82.8
2023-03-24T07:10:17.072Z,82.7
2023-03-24T07:11:16.608Z,82.9
2023-03-24T07:12:16.878Z,83.5
2023-03-24T07:13:17.419Z,83.5
2023-03-24T07:14:16.963Z,84.1
2023-03-24T07:15:17.527Z,83.5
2023-03-24T07:16:17.116Z,83.6
2023-03-24T07:17:16.731Z,83.8
2023-03-24T07:18:17.366Z,83.9
2023-03-24T07:19:16.950Z,84.0
2023-03-24T07:20:17.521Z,84.2
2023-03-24T07:21:17.084Z,84.6
2023-03-24T07:22:17.401Z,84.5
2023-03-24T07:23:17.020Z,84.7
2023-03-24T07:24:16.587Z,84.8
2023-03-24T07:25:17.139Z,84.8
2023-03-24T07:26:16.664Z,84.9
2023-03-24T07:27:17.241Z,85.2
2023-03-24T07:28:16.886Z,84.9
2023-03-24T07:29:17.419Z,85.1
2023-03-24T07:30:22.296Z,85.2
2023-03-24T07:31:17.242Z,85.5
2023-03-24T07:32:16.600Z,85.4
2023-03-24T07:33:17.169Z,85.7
2023-03-24T07:34:16.725Z,86.0
2023-03-24T07:35:17.294Z,86.3
2023-03-24T07:36:16.962Z,86.4
2023-03-24T07:37:16.539Z,86.2
2023-03-24T07:38:17.105Z,86.0
2023-03-24T07:39:16.687Z,85.9
2023-03-24T07:40:17.256Z,85.6
2023-03-24T07:41:16.815Z,85.6
2023-03-24T07:42:16.790Z,85.5
2023-03-24T07:43:17.380Z,85.5
2023-03-24T07:44:16.947Z,85.1
2023-03-24T07:45:17.780Z,85.1
2023-03-24T07:46:17.564Z,85.1
2023-03-24T07:47:17.273Z,85.3
2023-03-24T07:48:16.906Z,85.2
2023-03-24T07:49:20.347Z,85.3
2023-03-24T07:50:17.032Z,85.2
2023-03-24T07:51:16.598Z,85.2
2023-03-24T07:52:17.278Z,85.4
2023-03-24T07:53:16.796Z,85.3
2023-03-24T07:54:17.360Z,85.0
2023-03-24T07:55:16.907Z,85.1
2023-03-24T07:56:17.476Z,85.4
2023-03-24T07:57:17.230Z,85.2
2023-03-24T07:58:16.775Z,85.2
2023-03-24T07:59:17.411Z,85.2
2023-03-24T08:00:17.056Z,85.3
2023-03-24T08:01:16.650Z,84.9
2023-03-24T08:02:17.003Z,85.3
2023-03-24T08:03:16.958Z,85.2
2023-03-24T08:04:16.729Z,84.5
2023-03-24T08:05:17.346Z,84.3
2023-03-24T08:06:16.904Z,84.6
2023-03-24T08:07:17.508Z,84.4
2023-03-24T08:08:17.057Z,84.5
2023-03-24T08:09:16.635Z,84.5
2023-03-24T08:10:17.247Z,84.1
2023-03-24T08:11:16.793Z,84.1
2023-03-24T08:12:20.938Z,83.9
2023-03-24T08:13:16.552Z,84.1
2023-03-24T08:14:17.097Z,84.3
2023-03-24T08:15:16.695Z,84.5
2023-03-24T08:16:17.304Z,84.2
2023-03-24T08:17:16.878Z,84.1
2023-03-24T08:18:17.417Z,84.3
2023-03-24T08:19:16.966Z,84.4
2023-03-24T08:20:16.552Z,84.5
2023-03-24T08:21:17.157Z,84.7
2023-03-24T08:22:16.847Z,84.7
2023-03-24T08:23:17.420Z,84.7
2023-03-24T08:24:16.992Z,84.7
2023-03-24T08:25:16.527Z,84.8
2023-03-24T08:26:17.108Z,85.1
2023-03-24T08:27:16.700Z,85.0
2023-03-24T08:28:17.270Z,85.0
2023-03-24T08:29:16.861Z,85.0
2023-03-24T08:30:17.442Z,85.0
2023-03-24T08:31:17.105Z,84.9
2023-03-24T08:32:17.197Z,84.8
2023-03-24T08:33:16.948Z,85.3
2023-03-24T08:34:16.555Z,85.4
2023-03-24T08:35:17.129Z,85.7
2023-03-24T08:36:16.745Z,85.7
2023-03-24T08:37:17.307Z,85.4
2023-03-24T08:38:19.320Z,85.4
2023-03-24T08:39:16.892Z,85.6
2023-03-24T08:40:17.429Z,86.0
2023-03-24T08:41:17.009Z,85.9
2023-03-24T08:42:16.843Z,85.6
2023-03-24T08:43:17.432Z,85.5
2023-03-24T08:44:17.002Z,85.8
2023-03-24T08:45:16.580Z,86.1
2023-03-24T08:46:17.213Z,85.8
2023-03-24T08:47:16.787Z,86.3
2023-03-24T08:48:17.345Z,86.2
2023-03-24T08:49:16.916Z,86.2
2023-03-24T08:50:17.478Z,86.2
2023-03-24T08:51:17.068Z,86.3
2023-03-24T08:52:17.192Z,86.3
2023-03-24T08:53:16.735Z,86.4
2023-03-24T08:54:17.309Z,86.1
2023-03-24T08:55:16.921Z,85.6
2023-03-24T08:56:17.485Z,85.7
2023-03-24T08:57:17.039Z,86.2
2023-03-24T08:58:16.599Z,86.2
2023-03-24T08:59:17.142Z,86.1
2023-03-24T09:00:16.784Z,86.3
2023-03-24T09:01:17.409Z,86.2
2023-03-24T09:02:16.608Z,86.7
2023-03-24T09:03:17.145Z,86.9
2023-03-24T09:04:16.775Z,86.8
2023-03-24T09:05:17.387Z,87.0
2023-03-24T09:06:16.968Z,87.3
2023-03-24T09:07:16.509Z,87.5
2023-03-24T09:08:17.106Z,87.4
2023-03-24T09:09:16.673Z,87.8
2023-03-24T09:10:17.215Z,88.1
2023-03-24T09:11:16.773Z,88.3
2023-03-24T09:12:17.141Z,88.4
2023-03-24T09:13:16.945Z,88.4
2023-03-24T09:14:16.652Z,88.3
2023-03-24T09:15:17.229Z,88.6
2023-03-24T09:16:16.952Z,89.1
2023-03-24T09:17:16.522Z,89.4
2023-03-24T09:18:17.078Z,89.9
2023-03-24T09:19:16.645Z,89.9
2023-03-24T09:20:17.222Z,89.9
2023-03-24T09:21:16.809Z,90.2
2023-03-24T09:22:17.425Z,90.5
2023-03-24T09:23:17.018Z,90.6
2023-03-24T09:24:16.586Z,91.1
2023-03-24T09:25:17.261Z,91.5
2023-03-24T09:26:16.901Z,91.8
2023-03-24T09:27:17.470Z,91.9
2023-03-24T09:28:17.050Z,92.3
2023-03-24T09:29:16.602Z,92.7
2023-03-24T09:30:17.163Z,92.7
2023-03-24T09:31:16.844Z,92.8
2023-03-24T09:32:16.848Z,92.9
2023-03-24T09:33:17.397Z,93.1
2023-03-24T09:34:16.925Z,93.2
2023-03-24T09:35:17.566Z,93.2
2023-03-24T09:36:17.209Z,93.5
2023-03-24T09:37:16.781Z,93.7
2023-03-24T09:38:17.355Z,93.8
2023-03-24T09:39:20.028Z,93.6
2023-03-24T09:40:16.689Z,93.7
2023-03-24T09:41:17.251Z,93.9
2023-03-24T09:42:17.060Z,94.1
2023-03-24T09:43:16.646Z,94.2
2023-03-24T09:44:17.184Z,93.6
2023-03-24T09:45:16.826Z,93.5
2023-03-24T09:46:17.409Z,93.5
2023-03-24T09:47:16.992Z,93.5
2023-03-24T09:48:16.594Z,93.3
2023-03-24T09:49:17.199Z,93.3
2023-03-24T09:50:16.761Z,93.8
2023-03-24T09:51:17.349Z,93.7
2023-03-24T09:52:17.342Z,93.9
2023-03-24T09:53:16.978Z,93.8
2023-03-24T09:54:16.527Z,93.7
2023-03-24T09:55:17.068Z,93.6
2023-03-24T09:56:16.643Z,93.4
2023-03-24T09:57:17.271Z,93.4
2023-03-24T09:58:16.852Z,93.4
2023-03-24T09:59:17.370Z,93.7
2023-03-24T10:00:16.952Z,93.2
2023-03-24T10:01:17.758Z,92.7
2023-03-24T10:02:17.126Z,92.7
2023-03-24T10:03:16.891Z,92.5
2023-03-24T10:04:17.566Z,92.5
2023-03-24T10:05:17.206Z,92.1
2023-03-24T10:06:16.790Z,92.0
2023-03-24T10:07:17.341Z,91.1
2023-03-24T10:08:16.907Z,91.3
2023-03-24T10:09:17.475Z,91.4
2023-03-24T10:10:17.061Z,91.4
2023-03-24T10:11:16.606Z,91.6
2023-03-24T10:12:17.507Z,91.5
2023-03-24T10:13:17.049Z,90.8
2023-03-24T10:14:16.587Z,90.8
2023-03-24T10:15:37.041Z,90.5
2023-03-24T10:16:17.348Z,90.3
2023-03-24T10:17:16.926Z,90.2
2023-03-24T10:18:17.466Z,90.1
2023-03-24T10:19:17.026Z,90.4
2023-03-24T10:20:16.637Z,90.1
2023-03-24T10:21:17.186Z,89.8
2023-03-24T10:22:16.856Z,90.0
2023-03-24T10:23:17.423Z,89.9
2023-03-24T10:24:17.031Z,90.0
2023-03-24T10:25:16.652Z,89.8
2023-03-24T10:26:17.314Z,89.2
2023-03-24T10:27:16.852Z,89.3
2023-03-24T10:28:17.393Z,89.6
2023-03-24T10:29:16.942Z,89.0
2023-03-24T10:30:17.491Z,89.0
2023-03-24T10:31:17.134Z,89.3
2023-03-24T10:32:17.190Z,89.4
2023-03-24T10:33:16.770Z,89.4
2023-03-24T10:34:17.454Z,89.3
2023-03-24T10:35:17.037Z,89.3
2023-03-24T10:36:16.726Z,89.1
2023-03-24T10:37:17.315Z,88.7
2023-03-24T10:38:16.917Z,88.9
2023-03-24T10:39:28.586Z,88.7
2023-03-24T10:40:16.990Z,89.1
2023-03-24T10:41:16.588Z,89.1
2023-03-24T10:42:17.075Z,88.9
2023-03-24T10:43:16.656Z,88.7
2023-03-24T10:44:17.208Z,88.7
2023-03-24T10:45:16.813Z,88.7
2023-03-24T10:46:17.525Z,88.3
2023-03-24T10:47:17.166Z,88.4
2023-03-24T10:48:16.743Z,88.3
2023-03-24T10:49:17.296Z,88.0
2023-03-24T10:50:16.845Z,88.0
2023-03-24T10:51:17.400Z,87.8
2023-03-24T10:52:17.543Z,87.6
2023-03-24T10:53:17.147Z,87.7
2023-03-24T10:54:16.739Z,87.7
2023-03-24T10:55:17.303Z,87.4
2023-03-24T10:56:16.849Z,87.6
2023-03-24T10:57:17.443Z,87.1
2023-03-24T10:58:17.004Z,87.1
2023-03-24T10:59:16.588Z,87.3
2023-03-24T11:00:17.185Z,87.3
2023-03-24T11:01:16.802Z,87.4
2023-03-24T11:02:16.684Z,87.3
2023-03-24T11:03:17.546Z,87.2
2023-03-24T11:04:20.266Z,87.2
2023-03-24T11:05:16.929Z,87.2
2023-03-24T11:06:17.492Z,87.1
2023-03-24T11:07:17.015Z,87.1
2023-03-24T11:08:16.555Z,87.2
2023-03-24T11:09:17.091Z,87.0
2023-03-24T11:10:16.641Z,86.9
2023-03-24T11:11:17.215Z,87.0
2023-03-24T11:12:16.993Z,86.6
2023-03-24T11:13:19.104Z,86.2
2023-03-24T11:14:16.718Z,86.3
2023-03-24T11:15:23.198Z,86.6
2023-03-24T11:16:17.172Z,86.5
2023-03-24T11:17:16.772Z,86.2
2023-03-24T11:18:17.403Z,86.1
2023-03-24T11:19:20.312Z,86.0
2023-03-24T11:20:17.240Z,86.1
2023-03-24T11:21:16.824Z,85.9
2023-03-24T11:22:17.355Z,86.0
2023-03-24T11:23:16.963Z,85.7
2023-03-24T11:24:16.554Z,85.7
2023-03-24T11:25:17.137Z,85.6
2023-03-24T11:26:16.716Z,85.5
2023-03-24T11:27:17.282Z,85.5
2023-03-24T11:28:16.835Z,85.8
2023-03-24T11:29:17.395Z,86.2
2023-03-24T11:30:17.050Z,86.4
2023-03-24T11:31:16.884Z,86.1
2023-03-24T11:32:17.400Z,86.3
2023-03-24T11:33:16.935Z,86.4
2023-03-24T11:34:17.489Z,86.0
2023-03-24T11:35:17.074Z,86.3
2023-03-24T11:36:16.665Z,86.5
2023-03-24T11:37:17.231Z,86.6
2023-03-24T11:38:16.793Z,86.0
2023-03-24T11:39:17.372Z,86.1
2023-03-24T11:40:17.188Z,86.0
2023-03-24T11:41:16.801Z,86.3
2023-03-24T11:42:17.302Z,86.0
2023-03-24T11:43:16.917Z,86.1
2023-03-24T11:44:17.478Z,86.3
2023-03-24T11:45:17.029Z,86.6
2023-03-24T11:46:16.634Z,86.7
2023-03-24T11:47:17.234Z,87.4
2023-03-24T11:48:16.791Z,88.0
2023-03-24T11:49:17.325Z,88.5
2023-03-24T11:50:16.953Z,88.4
2023-03-24T11:51:17.544Z,88.6
2023-03-24T11:52:17.318Z,88.9
2023-03-24T11:53:16.872Z,89.1
2023-03-24T11:54:17.418Z,88.7
2023-03-24T11:55:16.955Z,88.8
2023-03-24T11:56:16.649Z,89.0
2023-03-24T11:57:17.299Z,89.1
2023-03-24T11:58:16.916Z,88.6
2023-03-24T11:59:17.484Z,88.7
2023-03-24T12:00:17.154Z,88.4
2023-03-24T12:01:16.770Z,88.2
2023-03-24T12:02:16.661Z,88.0
2023-03-24T12:03:17.527Z,87.6
2023-03-24T12:04:17.210Z,87.4
2023-03-24T12:05:16.780Z,87.4
2023-03-24T12:06:17.582Z,87.3
2023-03-24T12:07:17.161Z,87.6
2023-03-24T12:08:16.719Z,87.8
2023-03-24T12:09:17.288Z,87.8
2023-03-24T12:10:17.100Z,87.5
2023-03-24T12:11:19.671Z,87.4
2023-03-24T12:12:17.085Z,86.9
2023-03-24T12:13:32.948Z,86.6
2023-03-24T12:14:16.805Z,86.8
2023-03-24T12:15:29.108Z,86.5
2023-03-24T12:16:16.851Z,86.3
2023-03-24T12:17:17.476Z,86.4
2023-03-24T12:18:17.048Z,86.4
2023-03-24T12:19:16.601Z,86.2
2023-03-24T12:20:17.130Z,86.3
2023-03-24T12:21:16.699Z,86.1
2023-03-24T12:22:17.481Z,86.2
2023-03-24T12:23:17.048Z,85.3
2023-03-24T12:24:16.601Z,85.4
2023-03-24T12:25:17.204Z,85.2
2023-03-24T12:26:16.775Z,84.9
2023-03-24T12:27:17.340Z,84.6
2023-03-24T12:28:20.320Z,84.4
2023-03-24T12:29:17.026Z,83.8
2023-03-24T12:30:16.705Z,83.4
2023-03-24T12:31:17.311Z,83.3
2023-03-24T12:32:16.935Z,83.4
2023-03-24T12:33:17.476Z,83.5
2023-03-24T12:34:17.057Z,83.3
2023-03-24T12:35:16.725Z,83.5
2023-03-24T12:36:17.365Z,82.8
2023-03-24T12:37:16.933Z,82.4
2023-03-24T12:38:17.491Z,82.4
2023-03-24T12:39:17.105Z,82.1
2023-03-24T12:40:17.005Z,81.5
2023-03-24T12:41:16.659Z,81.6
2023-03-24T12:42:16.918Z,81.4
2023-03-24T12:43:17.504Z,81.4
2023-03-24T12:44:17.036Z,81.1
2023-03-24T12:45:16.593Z,80.9
2023-03-24T12:46:17.276Z,81.0
2023-03-24T12:47:16.842Z,80.8
2023-03-24T12:48:17.377Z,80.9
2023-03-24T12:49:16.929Z,80.7
2023-03-24T12:50:17.478Z,80.6
2023-03-24T12:51:17.049Z,80.6
2023-03-24T12:52:16.767Z,80.6
2023-03-24T12:53:17.358Z,81.1
2023-03-24T12:54:16.925Z,81.4
2023-03-24T12:55:17.477Z,81.6
2023-03-24T12:56:17.016Z,82.0
2023-03-24T12:57:16.547Z,82.4
2023-03-24T12:58:17.098Z,82.6
2023-03-24T12:59:16.724Z,82.8
2023-03-24T13:00:17.263Z,82.9
2023-03-24T13:01:16.925Z,83.2
2023-03-24T13:02:17.615Z,83.7
2023-03-24T13:03:17.269Z,83.8
2023-03-24T13:04:17.086Z,86.2
2023-03-24T13:05:16.708Z,88.4
2023-03-24T13:06:17.994Z,91.5
2023-03-24T13:07:16.541Z,92.1
2023-03-24T13:08:17.129Z,92.7
2023-03-24T13:09:16.709Z,95.2
2023-03-24T13:10:17.284Z,95.5
2023-03-24T13:11:32.570Z,95.5
2023-03-24T13:12:16.798Z,95.2
2023-03-24T13:13:17.373Z,95.4
2023-03-24T13:14:16.954Z,95.7
2023-03-24T13:15:17.509Z,95.9
2023-03-24T13:16:17.146Z,96.1
2023-03-24T13:17:16.719Z,96.5
2023-03-24T13:18:17.352Z,97.1